Avon Lake, Iowa
Current Conditions -  °F | °C
As of 6:54 AM on Thursday 18 Dec 2014 (Local Time) from KDSM Reporting Station
Overcast Overcast  
Wind Chill: 17°   Ceiling: 7000
Heat Index: 23°   Visibility: 10mi
Dew Point: 16°   Wind: 5mph
Humidity: 74%   Direction: 120°ESE
Pressure: 30.29"   Gusts: NA
Location:  41.4707°N, 93.4797°W
Report Text: KDSM 181254Z 12004KT 10SM OVC070 M05/M09 A3029 RMK AO2 SLP269 T10501089
Loading
Personal Weather Stations






























Interactive Weather Map New forecast layout! Learn more

10-Day Weather Forecast

Advertisements
Track Severe Weather on mobile